Time;durP1;ratioP1;P1;durP2;ratioP2;P2;SDS_P1;SDS_P2;PMS_P1;PMS_P2;Temp;Humidity;BMP_temperature;BMP_pressure;BME280_temperature;BME280_humidity;BME280_pressure;Samples;Min_cycle;Max_cycle;Signal;HPM_P1;HPM_P2
2020/12/30 00:00:51;;;;;;;55.53;32.53;;;4.10;99.90;;;;;;5014609;28;21023;-53
2020/12/30 00:03:18;;;;;;;57.23;33.97;;;4.20;99.90;;;;;;5004778;28;21018;-53
2020/12/30 00:05:46;;;;;;;56.27;34.27;;;4.10;99.90;;;;;;5014042;28;20591;-53
2020/12/30 00:08:13;;;;;;;58.03;33.43;;;4.10;99.90;;;;;;5015252;28;20622;-54
2020/12/30 00:10:41;;;;;;;57.07;34.77;;;4.20;99.90;;;;;;5015356;28;20706;-54
2020/12/30 00:13:09;;;;;;;58.23;34.47;;;4.20;99.90;;;;;;5015287;28;20484;-54
2020/12/30 00:15:36;;;;;;;54.97;34.40;;;4.10;99.90;;;;;;5013984;28;20490;-54
2020/12/30 00:18:05;;;;;;;57.07;34.63;;;4.20;99.90;;;;;;5016236;28;20516;-53
2020/12/30 00:20:32;;;;;;;63.77;35.67;;;4.20;99.90;;;;;;5017003;28;21087;-54
2020/12/30 00:22:59;;;;;;;62.77;35.80;;;4.30;99.90;;;;;;5015128;28;20490;-53
2020/12/30 00:25:27;;;;;;;64.53;36.00;;;4.30;99.90;;;;;;5013173;28;20482;-54
2020/12/30 00:27:54;;;;;;;66.77;37.10;;;4.20;99.90;;;;;;5005444;28;20580;-53
2020/12/30 00:30:47;;;;;;;59.12;34.96;;;4.20;99.90;;;;;;3003648;28;10003748;-53
2020/12/30 00:33:16;;;;;;;64.37;37.87;;;4.20;99.90;;;;;;3947445;28;10001251;-53
2020/12/30 00:35:43;;;;;;;59.20;34.93;;;4.20;99.90;;;;;;4976011;28;20900;-54
2020/12/30 00:38:10;;;;;;;61.60;36.00;;;4.20;99.90;;;;;;4984429;28;20575;-53
2020/12/30 00:40:38;;;;;;;61.63;36.70;;;4.30;99.90;;;;;;4987662;28;20572;-53
2020/12/30 00:43:07;;;;;;;67.90;37.20;;;4.30;99.90;;;;;;4988583;28;20879;-53
2020/12/30 00:45:34;;;;;;;62.90;36.77;;;4.30;99.90;;;;;;4989192;28;20526;-53
2020/12/30 00:48:02;;;;;;;66.80;38.43;;;4.30;99.90;;;;;;5038034;28;20519;-53
2020/12/30 00:50:30;;;;;;;62.07;36.67;;;4.30;99.90;;;;;;5025087;28;20472;-53
2020/12/30 00:52:57;;;;;;;62.50;37.57;;;4.30;99.90;;;;;;5022149;28;20585;-53
2020/12/30 00:55:24;;;;;;;66.13;38.73;;;4.30;99.90;;;;;;5057435;28;20489;-53
2020/12/30 00:58:14;;;;;;;65.40;37.47;;;4.30;99.90;;;;;;5025443;28;20467;-53
2020/12/30 01:00:43;;;;;;;68.60;39.30;;;4.30;99.90;;;;;;5056542;28;20483;-53
2020/12/30 01:03:32;;;;;;;64.03;37.40;;;4.30;99.90;;;;;;5024486;28;20479;-53
2020/12/30 01:06:00;;;;;;;62.83;38.00;;;4.30;99.90;;;;;;5029886;28;20539;-53
2020/12/30 01:08:27;;;;;;;63.63;37.47;;;4.30;99.90;;;;;;5019907;28;20515;-53
2020/12/30 01:10:55;;;;;;;61.07;34.83;;;4.30;99.90;;;;;;4999182;28;20953;-54
2020/12/30 01:13:22;;;;;;;64.37;39.27;;;4.30;99.90;;;;;;5029675;28;21114;-53
2020/12/30 01:15:50;;;;;;;65.23;38.37;;;4.30;99.90;;;;;;5029983;28;20590;-53
2020/12/30 01:18:17;;;;;;;62.03;37.97;;;4.30;99.90;;;;;;5029747;28;20551;-53
2020/12/30 01:20:44;;;;;;;65.23;37.70;;;4.40;99.90;;;;;;5022599;28;20853;-53
2020/12/30 01:23:12;;;;;;;64.53;35.33;;;4.30;99.90;;;;;;4997524;28;20532;-53
2020/12/30 01:25:40;;;;;;;65.50;39.10;;;4.40;99.90;;;;;;5000822;28;20502;-53
2020/12/30 01:28:07;;;;;;;62.53;37.60;;;4.40;99.90;;;;;;5006713;28;20914;-53
2020/12/30 01:30:34;;;;;;;61.57;37.87;;;4.30;99.90;;;;;;5013130;28;20501;-53
2020/12/30 01:33:01;;;;;;;62.87;38.50;;;4.30;99.90;;;;;;5009730;28;20573;-53
2020/12/30 01:35:29;;;;;;;64.40;38.43;;;4.30;99.90;;;;;;5008948;28;20484;-53
2020/12/30 01:37:57;;;;;;;60.93;37.33;;;4.30;99.90;;;;;;4991865;28;20559;-53
2020/12/30 01:40:25;;;;;;;60.40;37.40;;;4.40;99.90;;;;;;4990810;28;20541;-53
2020/12/30 01:42:52;;;;;;;59.73;37.73;;;4.40;99.90;;;;;;5028870;28;20511;-53
2020/12/30 01:45:20;;;;;;;58.80;37.17;;;4.40;99.90;;;;;;5029798;28;21042;-53
2020/12/30 01:47:49;;;;;;;59.67;37.93;;;4.40;99.90;;;;;;5028811;28;20561;-53
2020/12/30 01:50:16;;;;;;;60.57;37.47;;;4.40;99.90;;;;;;5027588;28;20510;-53
2020/12/30 01:52:44;;;;;;;59.40;37.67;;;4.40;99.90;;;;;;5028096;28;20612;-53
2020/12/30 01:55:12;;;;;;;57.37;36.30;;;4.40;99.90;;;;;;5028638;28;20486;-55
2020/12/30 01:57:41;;;;;;;60.17;35.73;;;4.40;99.90;;;;;;5028660;28;21015;-54
2020/12/30 02:00:09;;;;;;;60.57;36.00;;;4.40;99.90;;;;;;5027845;28;20489;-54
2020/12/30 02:02:38;;;;;;;60.93;36.43;;;4.30;99.90;;;;;;5027212;28;20485;-53
2020/12/30 02:05:09;;;;;;;56.83;36.50;;;4.30;99.90;;;;;;5028727;28;20557;-53
2020/12/30 02:07:37;;;;;;;56.07;35.63;;;4.30;99.90;;;;;;5028379;28;20927;-53
2020/12/30 02:10:04;;;;;;;52.20;34.80;;;4.40;99.90;;;;;;5028625;28;20547;-53
2020/12/30 02:12:33;;;;;;;55.50;36.77;;;4.40;99.90;;;;;;5026687;28;20490;-53
2020/12/30 02:15:01;;;;;;;53.40;34.70;;;4.40;99.90;;;;;;5028595;28;21000;-53
2020/12/30 02:17:28;;;;;;;57.73;34.90;;;4.30;99.90;;;;;;5017498;28;20845;-53
2020/12/30 02:19:55;;;;;;;52.87;34.23;;;4.30;99.90;;;;;;5008079;28;20483;-53
2020/12/30 02:22:25;;;;;;;54.90;32.70;;;4.30;99.90;;;;;;5006885;28;20829;-53
2020/12/30 02:24:54;;;;;;;50.73;33.63;;;4.30;99.90;;;;;;4988190;28;20510;-53
2020/12/30 02:27:21;;;;;;;50.70;33.63;;;4.30;99.90;;;;;;5000841;28;20480;-54
2020/12/30 02:29:48;;;;;;;51.77;34.43;;;4.30;99.90;;;;;;5003184;28;20489;-53
2020/12/30 02:32:15;;;;;;;54.87;34.07;;;4.30;99.90;;;;;;5002898;28;20579;-53
2020/12/30 02:34:43;;;;;;;54.60;33.70;;;4.30;99.90;;;;;;4988527;28;20506;-53
2020/12/30 02:37:10;;;;;;;56.30;34.90;;;4.30;99.90;;;;;;4988699;28;20485;-53
2020/12/30 02:39:37;;;;;;;50.07;33.70;;;4.30;99.90;;;;;;5000702;28;20500;-53
2020/12/30 02:42:05;;;;;;;52.97;34.10;;;4.30;99.90;;;;;;5027781;28;20536;-53
2020/12/30 02:44:32;;;;;;;52.37;34.53;;;4.30;99.90;;;;;;5028107;28;20477;-53
2020/12/30 02:47:00;;;;;;;56.10;33.90;;;4.40;99.90;;;;;;5028110;28;20503;-53
2020/12/30 02:49:27;;;;;;;53.10;34.47;;;4.30;99.90;;;;;;5025802;28;20485;-53
2020/12/30 02:51:54;;;;;;;54.03;34.57;;;4.30;99.90;;;;;;5027514;28;20961;-53
2020/12/30 02:54:22;;;;;;;54.50;35.07;;;4.30;99.90;;;;;;5028079;28;21065;-53
2020/12/30 02:56:49;;;;;;;51.67;33.93;;;4.30;99.90;;;;;;5028340;28;20838;-54
2020/12/30 02:59:17;;;;;;;48.53;31.60;;;4.30;99.90;;;;;;5026232;28;21045;-53
2020/12/30 03:01:45;;;;;;;51.83;32.33;;;4.40;99.90;;;;;;5022563;28;20590;-53
2020/12/30 03:04:12;;;;;;;50.57;33.20;;;4.30;99.90;;;;;;4996992;28;20557;-53
2020/12/30 03:06:39;;;;;;;53.57;34.40;;;4.30;99.90;;;;;;4988353;28;21063;-53
2020/12/30 03:09:07;;;;;;;50.20;33.23;;;4.30;99.90;;;;;;4988092;28;21038;-53
2020/12/30 03:11:34;;;;;;;52.63;34.07;;;4.30;99.90;;;;;;4988282;28;20982;-53
2020/12/30 03:14:02;;;;;;;50.57;33.70;;;4.30;99.90;;;;;;4987497;28;20590;-53
2020/12/30 03:16:30;;;;;;;50.50;32.93;;;4.30;99.90;;;;;;4987885;28;20543;-53
2020/12/30 03:18:57;;;;;;;50.70;33.73;;;4.30;99.90;;;;;;4986845;28;20535;-53
2020/12/30 03:21:24;;;;;;;51.90;34.87;;;4.30;99.90;;;;;;5009383;28;20562;-54
2020/12/30 03:23:51;;;;;;;51.00;32.40;;;4.30;99.90;;;;;;4994669;28;20563;-55
2020/12/30 03:26:19;;;;;;;52.87;35.20;;;4.30;99.90;;;;;;4998065;28;20498;-53
2020/12/30 03:28:47;;;;;;;52.70;34.10;;;4.30;99.90;;;;;;5008119;28;20582;-55
2020/12/30 03:31:14;;;;;;;51.93;32.33;;;4.30;99.90;;;;;;5014004;28;20846;-53
2020/12/30 03:33:42;;;;;;;49.87;31.97;;;4.30;99.90;;;;;;5007440;28;20468;-53
2020/12/30 03:36:09;;;;;;;48.07;32.53;;;4.30;99.90;;;;;;5007701;28;20500;-53
2020/12/30 03:38:38;;;;;;;52.20;33.73;;;4.30;99.90;;;;;;5017915;28;20486;-53
2020/12/30 03:41:05;;;;;;;52.83;34.03;;;4.20;99.90;;;;;;5027275;28;20517;-53
2020/12/30 03:43:32;;;;;;;51.77;33.20;;;4.30;99.90;;;;;;5027152;28;20954;-53
2020/12/30 03:45:59;;;;;;;57.00;36.10;;;4.30;99.90;;;;;;5027291;28;20491;-53
2020/12/30 03:48:27;;;;;;;52.80;34.20;;;4.30;99.90;;;;;;5025064;28;20481;-53
2020/12/30 03:50:55;;;;;;;54.07;33.33;;;4.30;99.90;;;;;;5027268;28;20512;-53
2020/12/30 03:53:22;;;;;;;54.73;34.37;;;4.20;99.90;;;;;;5030433;28;20470;-55
2020/12/30 03:55:50;;;;;;;50.77;32.40;;;4.20;99.90;;;;;;5031444;28;20480;-54
2020/12/30 03:58:18;;;;;;;55.13;34.37;;;4.30;99.90;;;;;;5029382;28;21015;-54
2020/12/30 04:00:45;;;;;;;53.23;32.90;;;4.20;99.90;;;;;;5030827;28;20501;-53
2020/12/30 04:03:12;;;;;;;50.03;33.17;;;4.20;99.90;;;;;;5030856;28;20260;-54
2020/12/30 04:05:39;;;;;;;51.17;32.67;;;4.30;99.90;;;;;;5030148;28;21044;-55
2020/12/30 04:08:08;;;;;;;51.83;33.33;;;4.30;99.90;;;;;;5029575;28;20532;-54
2020/12/30 04:10:35;;;;;;;52.43;34.40;;;4.20;99.90;;;;;;5030510;28;21029;-53
2020/12/30 04:13:02;;;;;;;52.03;32.33;;;4.20;99.90;;;;;;5020534;28;20564;-54
2020/12/30 04:15:30;;;;;;;51.93;34.10;;;4.20;99.90;;;;;;5010018;28;20501;-53
2020/12/30 04:17:57;;;;;;;50.63;32.57;;;4.20;99.90;;;;;;5013726;28;20827;-53
2020/12/30 04:20:24;;;;;;;50.23;32.53;;;4.20;99.90;;;;;;5005074;28;21081;-53
2020/12/30 04:22:51;;;;;;;54.53;33.30;;;4.20;99.90;;;;;;4989573;28;20519;-53
2020/12/30 04:25:19;;;;;;;48.60;33.67;;;4.20;99.90;;;;;;5011872;28;20465;-53
2020/12/30 04:27:47;;;;;;;50.43;32.50;;;4.20;99.90;;;;;;5005391;28;20876;-53
2020/12/30 04:30:14;;;;;;;48.23;32.10;;;4.30;99.90;;;;;;4985160;28;21041;-53
2020/12/30 04:32:41;;;;;;;52.03;32.77;;;4.20;99.90;;;;;;5029125;28;20570;-53
2020/12/30 04:35:09;;;;;;;51.77;33.60;;;4.20;99.90;;;;;;5030454;28;20567;-53
2020/12/30 04:37:36;;;;;;;47.70;31.00;;;4.20;99.90;;;;;;5030017;28;20486;-53
2020/12/30 04:40:04;;;;;;;53.63;31.93;;;4.20;99.90;;;;;;5030407;28;20566;-53
2020/12/30 04:42:36;;;;;;;52.27;33.60;;;4.20;99.90;;;;;;5028023;28;20491;-53
2020/12/30 04:45:07;;;;;;;51.20;33.33;;;4.20;99.90;;;;;;5028764;28;20563;-53
2020/12/30 04:47:35;;;;;;;54.07;34.30;;;4.20;99.90;;;;;;5030072;28;20850;-53
2020/12/30 04:50:04;;;;;;;49.57;33.63;;;4.20;99.90;;;;;;5030295;28;20478;-55
2020/12/30 04:52:32;;;;;;;48.87;32.87;;;4.20;99.90;;;;;;5027829;28;20589;-53
2020/12/30 04:55:01;;;;;;;51.43;33.60;;;4.20;99.90;;;;;;5027871;28;20565;-53
2020/12/30 04:57:57;;;;;;;51.13;33.97;;;4.20;99.90;;;;;;5029823;28;20525;-53
2020/12/30 05:00:26;;;;;;;52.07;34.03;;;4.20;99.90;;;;;;5029183;28;20471;-54
2020/12/30 05:02:57;;;;;;;54.83;35.07;;;4.20;99.90;;;;;;5028162;28;20493;-54
2020/12/30 05:05:24;;;;;;;50.87;33.60;;;4.20;99.90;;;;;;5025627;28;20514;-53
2020/12/30 05:07:53;;;;;;;56.67;35.10;;;4.20;99.90;;;;;;4993959;28;20570;-53
2020/12/30 05:10:21;;;;;;;51.53;33.30;;;4.20;99.90;;;;;;4997507;28;20546;-53
2020/12/30 05:12:53;;;;;;;56.77;37.13;;;4.20;99.90;;;;;;5011607;28;20575;-53
2020/12/30 05:15:21;;;;;;;50.73;32.83;;;4.20;99.90;;;;;;5007177;28;20540;-53
2020/12/30 05:17:48;;;;;;;54.60;34.63;;;4.20;99.90;;;;;;5005809;28;20473;-53
2020/12/30 05:20:15;;;;;;;53.03;35.70;;;4.20;99.90;;;;;;4998912;28;20466;-54
2020/12/30 05:22:42;;;;;;;53.97;35.23;;;4.20;99.90;;;;;;5007786;28;20560;-53
2020/12/30 05:25:10;;;;;;;55.73;35.53;;;4.20;99.90;;;;;;5006654;28;20484;-53
2020/12/30 05:27:38;;;;;;;46.60;32.63;;;4.20;99.90;;;;;;4989742;28;20903;-53
2020/12/30 05:30:06;;;;;;;54.50;34.07;;;4.20;99.90;;;;;;4995001;28;20489;-53
2020/12/30 05:32:37;;;;;;;50.60;34.37;;;4.20;99.90;;;;;;5008772;28;20479;-53
2020/12/30 05:35:05;;;;;;;51.43;33.80;;;4.20;99.90;;;;;;5009717;28;20493;-53
2020/12/30 05:37:35;;;;;;;53.13;33.87;;;4.10;99.90;;;;;;5009219;28;20491;-53
2020/12/30 05:40:18;;;;;;;48.20;33.90;;;4.10;99.90;;;;;;5014872;28;20506;-53
2020/12/30 05:42:46;;;;;;;49.93;34.03;;;4.10;99.90;;;;;;5028857;28;20506;-54
2020/12/30 05:45:19;;;;;;;48.37;33.33;;;4.20;99.90;;;;;;5029186;28;20966;-53
2020/12/30 05:47:47;;;;;;;46.80;32.67;;;4.10;99.90;;;;;;5027531;28;20516;-53
2020/12/30 05:50:23;;;;;;;46.97;33.90;;;4.10;99.90;;;;;;5028835;28;20870;-53
2020/12/30 05:52:51;;;;;;;51.20;31.30;;;4.10;99.90;;;;;;5028205;28;20575;-53
2020/12/30 05:55:26;;;;;;;48.50;31.83;;;4.20;99.90;;;;;;5029202;28;20974;-56
2020/12/30 05:57:53;;;;;;;48.17;32.93;;;4.10;99.90;;;;;;5026806;28;20485;-55
2020/12/30 06:00:29;;;;;;;48.90;32.83;;;4.10;99.90;;;;;;5028790;28;20540;-54
2020/12/30 06:02:57;;;;;;;44.07;31.47;;;4.10;99.90;;;;;;5028354;28;20977;-54
2020/12/30 06:05:24;;;;;;;45.77;32.10;;;4.10;99.90;;;;;;5020504;28;21042;-53
2020/12/30 06:07:53;;;;;;;45.33;32.10;;;4.10;99.90;;;;;;5007838;28;21083;-53
2020/12/30 06:10:23;;;;;;;47.37;31.83;;;4.10;99.90;;;;;;5007477;28;20589;-53
2020/12/30 06:12:53;;;;;;;44.87;31.93;;;4.10;99.90;;;;;;5006015;28;20485;-53
2020/12/30 06:15:24;;;;;;;47.37;32.70;;;4.10;99.90;;;;;;5014951;28;21078;-53
2020/12/30 06:17:57;;;;;;;46.20;32.40;;;4.10;99.90;;;;;;5018017;28;20486;-53
2020/12/30 06:20:31;;;;;;;43.93;31.70;;;4.10;99.90;;;;;;5010034;28;20509;-53
2020/12/30 06:23:01;;;;;;;54.93;34.47;;;4.20;99.90;;;;;;5017335;28;20487;-53
2020/12/30 06:25:31;;;;;;;50.97;32.37;;;4.20;99.90;;;;;;4988949;28;21054;-53
2020/12/30 06:28:08;;;;;;;46.33;32.07;;;4.20;99.90;;;;;;4990672;28;20480;-53
2020/12/30 06:30:38;;;;;;;45.73;32.63;;;4.10;99.90;;;;;;5027826;28;21069;-53
2020/12/30 06:33:07;;;;;;;53.23;34.57;;;4.10;99.90;;;;;;5059788;28;20484;-53
2020/12/30 06:35:36;;;;;;;48.43;32.00;;;4.10;99.90;;;;;;5028135;28;20479;-53
2020/12/30 06:38:19;;;;;;;45.33;32.93;;;4.10;99.90;;;;;;5005962;28;20543;-53
2020/12/30 06:40:55;;;;;;;48.20;32.30;;;4.10;99.90;;;;;;5027334;28;20511;-53
2020/12/30 06:43:43;;;;;;;49.57;32.00;;;4.10;99.90;;;;;;5027550;28;20978;-53
2020/12/30 06:46:12;;;;;;;44.70;31.23;;;4.10;99.90;;;;;;5028210;28;20506;-53
2020/12/30 06:48:54;;;;;;;46.53;32.27;;;4.10;99.90;;;;;;5026980;28;21073;-53
2020/12/30 06:51:23;;;;;;;47.53;31.57;;;4.10;99.90;;;;;;5027750;28;20486;-53
2020/12/30 06:53:51;;;;;;;48.40;30.87;;;4.10;99.90;;;;;;5027759;28;20478;-53
2020/12/30 06:56:37;;;;;;;45.23;31.10;;;4.10;99.90;;;;;;5027996;28;20480;-53
2020/12/30 06:59:05;;;;;;;46.50;31.97;;;4.10;99.90;;;;;;5023592;28;20565;-54
2020/12/30 07:01:57;;;;;;;48.20;32.07;;;4.10;99.90;;;;;;5026597;28;20489;-53
2020/12/30 07:04:25;;;;;;;47.17;31.90;;;4.10;99.90;;;;;;5027701;28;21046;-53
2020/12/30 07:06:53;;;;;;;49.73;31.30;;;4.10;99.90;;;;;;5009767;28;20471;-54
2020/12/30 07:09:30;;;;;;;48.13;31.73;;;4.10;99.90;;;;;;5007586;28;20483;-53
2020/12/30 07:11:58;;;;;;;45.57;32.30;;;4.10;99.90;;;;;;4990080;28;20503;-53
2020/12/30 07:14:27;;;;;;;38.73;28.73;;;4.10;99.90;;;;;;4981431;28;20475;-53
2020/12/30 07:16:57;;;;;;;45.70;31.60;;;4.10;99.90;;;;;;5000687;28;20513;-53
2020/12/30 07:19:26;;;;;;;46.53;31.97;;;4.10;99.90;;;;;;4994847;28;20992;-53
2020/12/30 07:22:03;;;;;;;42.23;29.10;;;4.10;99.90;;;;;;4988072;28;20489;-53
2020/12/30 07:24:33;;;;;;;44.63;30.87;;;4.10;99.90;;;;;;4994805;28;21073;-53
2020/12/30 07:27:04;;;;;;;47.23;29.90;;;4.00;99.90;;;;;;4994333;28;20833;-54
2020/12/30 07:29:33;;;;;;;44.50;31.63;;;4.00;99.90;;;;;;5004637;28;20546;-53
2020/12/30 07:32:03;;;;;;;40.03;29.90;;;4.00;99.90;;;;;;5007275;28;20504;-53
2020/12/30 07:34:33;;;;;;;45.00;30.93;;;4.10;99.90;;;;;;5010054;28;20573;-53
2020/12/30 07:37:01;;;;;;;43.13;31.63;;;4.00;99.90;;;;;;5010166;28;21018;-53
2020/12/30 07:39:34;;;;;;;44.07;30.77;;;4.00;99.90;;;;;;5018773;28;20478;-53
2020/12/30 07:42:02;;;;;;;43.00;30.23;;;4.00;99.90;;;;;;5029645;28;20540;-53
2020/12/30 07:44:29;;;;;;;44.60;31.77;;;4.10;99.90;;;;;;5030577;28;20557;-53
2020/12/30 07:47:03;;;;;;;42.07;29.90;;;4.00;99.90;;;;;;5028643;28;20490;-53
2020/12/30 07:49:30;;;;;;;42.20;28.07;;;4.00;99.90;;;;;;5030913;28;20570;-53
2020/12/30 07:52:00;;;;;;;45.73;32.57;;;4.00;99.90;;;;;;5030743;28;20881;-54
2020/12/30 07:54:28;;;;;;;43.10;29.87;;;4.00;99.90;;;;;;5031139;28;20832;-53
2020/12/30 07:57:02;;;;;;;44.30;31.03;;;4.00;99.90;;;;;;5028498;28;20489;-54
2020/12/30 07:59:30;;;;;;;44.03;31.77;;;4.00;99.90;;;;;;5030769;28;20954;-53
2020/12/30 08:02:03;;;;;;;49.97;33.50;;;4.00;99.90;;;;;;5029901;28;20501;-53
2020/12/30 08:04:33;;;;;;;43.53;32.27;;;4.00;99.90;;;;;;5020446;28;20577;-53
2020/12/30 08:07:04;;;;;;;42.67;30.43;;;4.00;99.90;;;;;;5009946;28;20254;-53
2020/12/30 08:09:35;;;;;;;45.37;31.53;;;4.00;99.90;;;;;;5010669;28;20888;-53
2020/12/30 08:12:06;;;;;;;46.83;32.33;;;4.00;99.90;;;;;;4994393;28;20510;-53
2020/12/30 08:14:36;;;;;;;45.30;32.17;;;4.00;99.90;;;;;;5007335;28;20848;-53
2020/12/30 08:17:07;;;;;;;44.23;29.47;;;4.00;99.90;;;;;;5009123;28;21022;-54
2020/12/30 08:19:38;;;;;;;44.57;30.80;;;4.00;99.90;;;;;;4991722;28;20976;-53
2020/12/30 08:22:09;;;;;;;47.17;32.53;;;4.00;99.90;;;;;;4990945;28;20847;-53
2020/12/30 08:24:44;;;;;;;50.30;32.37;;;4.00;99.90;;;;;;4991219;28;20557;-53
2020/12/30 08:27:13;;;;;;;45.37;30.47;;;4.00;99.90;;;;;;4996322;28;20542;-53
2020/12/30 08:29:56;;;;;;;49.77;32.83;;;4.00;99.90;;;;;;5030366;28;20489;-53
2020/12/30 08:32:41;;;;;;;50.63;32.37;;;4.00;99.90;;;;;;5029676;28;20485;-53
2020/12/30 08:35:12;;;;;;;50.00;32.97;;;4.00;99.90;;;;;;5024865;28;20900;-53
2020/12/30 08:37:43;;;;;;;46.53;32.20;;;4.00;99.90;;;;;;5003664;28;20893;-53
2020/12/30 08:40:17;;;;;;;46.47;33.47;;;4.10;99.90;;;;;;5030172;28;20498;-53
2020/12/30 08:43:33;;;;;;;48.20;32.50;;;4.10;99.90;;;;;;5029671;28;21102;-53
2020/12/30 08:46:07;;;;;;;50.47;32.10;;;4.00;99.90;;;;;;5027261;28;20476;-53
2020/12/30 08:48:49;;;;;;;46.13;32.07;;;4.00;99.90;;;;;;5029993;28;20480;-53
2020/12/30 08:51:31;;;;;;;46.67;31.33;;;4.00;99.90;;;;;;5025841;28;20718;-53
2020/12/30 08:53:59;;;;;;;49.07;32.50;;;4.00;99.90;;;;;;5028894;28;20467;-53
2020/12/30 08:56:27;;;;;;;46.20;32.23;;;4.00;99.90;;;;;;5029947;28;20476;-53
2020/12/30 08:58:56;;;;;;;48.07;33.03;;;4.00;99.90;;;;;;5025855;28;20496;-53
2020/12/30 09:01:24;;;;;;;46.37;32.07;;;4.10;99.90;;;;;;5003813;28;20483;-53
2020/12/30 09:03:53;;;;;;;51.13;32.63;;;4.10;99.90;;;;;;5014017;28;20491;-53
2020/12/30 09:06:28;;;;;;;49.10;33.97;;;4.10;99.90;;;;;;5012362;28;20498;-53
2020/12/30 09:08:56;;;;;;;48.70;34.10;;;4.10;99.90;;;;;;4993879;28;20483;-53
2020/12/30 09:11:26;;;;;;;46.87;32.83;;;4.10;99.90;;;;;;5003395;28;20537;-53
2020/12/30 09:13:54;;;;;;;47.40;31.93;;;4.10;99.90;;;;;;5005754;28;20512;-53
2020/12/30 09:20:32;;;;;;;45.77;32.00;;;4.10;99.90;;;;;;5285632;23;20466;-52
2020/12/30 09:23:00;;;;;;;50.80;32.53;;;4.10;99.90;;;;;;5005710;28;20485;-49
2020/12/30 09:25:38;;;;;;;46.42;30.65;;;4.10;99.90;;;;;;3250834;28;10023253;-50
2020/12/30 09:28:15;;;;;;;49.22;31.77;;;4.10;99.90;;;;;;3281512;28;10001964;-53
2020/12/30 09:30:44;;;;;;;46.17;31.53;;;4.10;99.90;;;;;;5007354;28;20265;-50
2020/12/30 09:33:15;;;;;;;50.67;33.27;;;4.10;99.90;;;;;;5009037;28;20482;-51
2020/12/30 09:35:44;;;;;;;48.13;32.20;;;4.10;99.90;;;;;;4994891;28;21147;-50
2020/12/30 09:38:17;;;;;;;49.37;32.67;;;4.10;99.90;;;;;;4999945;28;20505;-50
2020/12/30 09:40:46;;;;;;;50.13;33.63;;;4.10;99.90;;;;;;4998646;28;21288;-50
2020/12/30 09:43:17;;;;;;;48.83;32.43;;;4.10;99.90;;;;;;4994894;28;20566;-50
2020/12/30 09:45:44;;;;;;;46.17;31.23;;;4.10;99.90;;;;;;4989389;28;20484;-51
2020/12/30 09:48:17;;;;;;;50.77;32.70;;;4.10;99.90;;;;;;5005929;28;20482;-50
2020/12/30 09:50:48;;;;;;;50.53;33.33;;;4.10;99.90;;;;;;5007138;28;20611;-50
2020/12/30 09:53:16;;;;;;;46.47;31.57;;;4.10;99.90;;;;;;5004861;28;20460;-50
2020/12/30 09:55:44;;;;;;;47.87;32.50;;;4.00;99.90;;;;;;5004764;28;20481;-50
2020/12/30 09:58:11;;;;;;;43.73;30.10;;;4.00;99.90;;;;;;5008111;28;20931;-53
2020/12/30 10:00:39;;;;;;;47.30;31.73;;;4.00;99.90;;;;;;5004235;28;20547;-50
2020/12/30 10:03:07;;;;;;;48.17;30.77;;;4.00;99.90;;;;;;5002469;28;21099;-50
2020/12/30 10:05:35;;;;;;;49.80;32.37;;;4.00;99.90;;;;;;4988986;28;20999;-50
2020/12/30 10:08:03;;;;;;;46.80;31.93;;;4.00;99.90;;;;;;4988738;28;20511;-51
2020/12/30 10:10:31;;;;;;;45.83;30.97;;;4.00;99.90;;;;;;4993445;28;20504;-50
2020/12/30 10:12:58;;;;;;;47.87;31.90;;;4.00;99.90;;;;;;5004908;28;20588;-50
2020/12/30 10:15:27;;;;;;;45.63;30.73;;;4.00;99.90;;;;;;4999326;28;20508;-50
2020/12/30 10:17:55;;;;;;;50.67;31.33;;;4.00;99.90;;;;;;5004312;28;20505;-50
2020/12/30 10:20:22;;;;;;;47.83;31.60;;;4.00;99.90;;;;;;5007118;28;20528;-51
2020/12/30 10:22:49;;;;;;;48.50;31.47;;;4.00;99.90;;;;;;5009682;28;20480;-51
2020/12/30 10:25:17;;;;;;;49.67;31.23;;;4.00;99.90;;;;;;4998913;28;20471;-50
2020/12/30 10:27:45;;;;;;;50.93;31.37;;;3.90;99.90;;;;;;5007578;28;20912;-50
2020/12/30 10:30:12;;;;;;;47.83;31.30;;;4.00;99.90;;;;;;5002212;28;20495;-49
2020/12/30 10:32:40;;;;;;;47.10;31.93;;;4.00;99.90;;;;;;4993542;28;20487;-50
2020/12/30 10:35:08;;;;;;;44.00;29.77;;;4.00;99.90;;;;;;5002770;28;20483;-50
2020/12/30 10:37:35;;;;;;;47.93;31.63;;;4.00;99.90;;;;;;4998938;28;20492;-51
2020/12/30 10:40:04;;;;;;;47.43;31.70;;;4.00;99.90;;;;;;4997562;28;20479;-49
2020/12/30 10:42:32;;;;;;;50.87;32.17;;;4.00;99.90;;;;;;5007609;28;20502;-50
2020/12/30 10:44:59;;;;;;;48.73;31.27;;;4.00;99.90;;;;;;5008245;28;20512;-51
2020/12/30 10:47:26;;;;;;;45.90;31.17;;;4.00;99.90;;;;;;5007931;28;20506;-51
2020/12/30 10:49:54;;;;;;;44.30;31.60;;;4.00;99.90;;;;;;5007363;28;20482;-50
2020/12/30 10:52:22;;;;;;;46.17;31.90;;;4.00;99.90;;;;;;5006137;28;20487;-49
2020/12/30 10:54:49;;;;;;;48.10;32.70;;;3.90;99.90;;;;;;4994837;28;20476;-49
2020/12/30 10:57:19;;;;;;;46.93;31.93;;;4.00;99.90;;;;;;4998858;28;20483;-51
2020/12/30 10:59:47;;;;;;;49.23;31.63;;;4.00;99.90;;;;;;4997297;28;20945;-51
2020/12/30 11:02:14;;;;;;;51.93;33.50;;;4.00;99.90;;;;;;5008449;28;20487;-54
2020/12/30 11:04:41;;;;;;;47.50;32.43;;;4.00;99.90;;;;;;5008331;28;20577;-50
2020/12/30 11:07:09;;;;;;;51.77;33.03;;;4.00;99.90;;;;;;4997817;28;20489;-51
2020/12/30 11:09:36;;;;;;;53.33;34.60;;;4.00;99.90;;;;;;5005196;28;20483;-51
2020/12/30 11:12:23;;;;;;;51.13;33.67;;;4.00;99.90;;;;;;4998355;28;20487;-50
2020/12/30 11:14:51;;;;;;;45.70;31.07;;;4.00;99.90;;;;;;4998212;28;20568;-50
2020/12/30 11:17:18;;;;;;;49.43;32.80;;;4.00;99.90;;;;;;5015489;28;20469;-52
2020/12/30 11:19:46;;;;;;;50.90;32.90;;;4.00;99.90;;;;;;5024717;28;20495;-51
2020/12/30 11:22:13;;;;;;;49.37;32.10;;;4.00;99.90;;;;;;5011061;28;20486;-50
2020/12/30 11:24:40;;;;;;;48.00;30.80;;;4.00;99.90;;;;;;4995246;28;20600;-51
2020/12/30 11:27:08;;;;;;;50.60;33.73;;;4.10;99.90;;;;;;4995958;28;20997;-50
2020/12/30 11:29:35;;;;;;;49.17;33.27;;;4.10;99.90;;;;;;4993618;28;20659;-51
2020/12/30 11:32:06;;;;;;;48.27;31.83;;;4.10;99.90;;;;;;4987187;28;20491;-50
2020/12/30 11:34:34;;;;;;;51.67;33.93;;;4.10;99.90;;;;;;5000060;28;20476;-50
2020/12/30 11:37:01;;;;;;;52.67;33.57;;;4.10;99.90;;;;;;5000674;28;20467;-51
2020/12/30 11:39:28;;;;;;;49.00;31.97;;;4.10;99.90;;;;;;4987527;28;20568;-49
2020/12/30 11:41:56;;;;;;;47.60;32.57;;;4.10;99.90;;;;;;4987875;28;20907;-51
2020/12/30 11:44:23;;;;;;;49.10;32.17;;;4.10;99.90;;;;;;4988464;28;20544;-51
2020/12/30 11:46:51;;;;;;;50.53;32.80;;;4.20;99.90;;;;;;4987672;28;20535;-49
2020/12/30 11:49:20;;;;;;;48.47;32.83;;;4.20;99.90;;;;;;4987829;28;20527;-50
2020/12/30 11:51:47;;;;;;;54.57;34.17;;;4.20;99.90;;;;;;4987102;28;20481;-50
2020/12/30 11:54:14;;;;;;;49.50;32.50;;;4.40;99.90;;;;;;4987716;28;20483;-50
2020/12/30 11:56:42;;;;;;;48.13;32.60;;;4.40;99.90;;;;;;4987673;28;20510;-50
2020/12/30 11:59:09;;;;;;;49.27;31.40;;;4.40;99.90;;;;;;4988012;28;20484;-49
2020/12/30 12:01:36;;;;;;;50.10;30.77;;;4.40;99.90;;;;;;4987880;28;20986;-50
2020/12/30 12:04:04;;;;;;;49.40;32.17;;;4.40;99.90;;;;;;5007231;28;21091;-52
2020/12/30 12:06:32;;;;;;;49.83;32.73;;;4.40;99.90;;;;;;5006998;28;20531;-51
2020/12/30 12:08:59;;;;;;;45.70;31.97;;;4.50;99.90;;;;;;5002497;28;20566;-51
2020/12/30 12:11:32;;;;;;;53.33;33.73;;;4.50;99.90;;;;;;5007280;28;20579;-50
2020/12/30 12:13:59;;;;;;;49.23;32.77;;;4.70;99.90;;;;;;5014458;28;20545;-50
2020/12/30 12:16:26;;;;;;;45.47;33.43;;;4.60;99.90;;;;;;5024923;28;20870;-50
2020/12/30 12:18:53;;;;;;;50.80;33.37;;;4.60;99.90;;;;;;5024768;28;20478;-50
2020/12/30 12:21:21;;;;;;;48.60;31.43;;;4.60;99.90;;;;;;5009806;28;20550;-51
2020/12/30 12:23:49;;;;;;;46.37;31.50;;;4.50;99.90;;;;;;5007503;28;20516;-51
2020/12/30 12:26:22;;;;;;;46.93;31.60;;;4.60;99.90;;;;;;5000219;28;21030;-51
2020/12/30 12:29:01;;;;;;;45.27;32.20;;;4.60;99.90;;;;;;5010281;28;20586;-50
2020/12/30 12:31:29;;;;;;;49.03;31.47;;;4.50;99.90;;;;;;5006871;28;20815;-50
2020/12/30 12:33:56;;;;;;;47.10;31.63;;;4.50;99.90;;;;;;5000166;28;20500;-51
2020/12/30 12:36:23;;;;;;;47.80;31.17;;;4.50;99.90;;;;;;5001146;28;20570;-50
2020/12/30 12:38:51;;;;;;;48.57;33.40;;;4.50;99.90;;;;;;4999184;28;20492;-50
2020/12/30 12:41:21;;;;;;;45.63;32.03;;;4.60;99.90;;;;;;5001186;28;21095;-53
2020/12/30 12:43:49;;;;;;;54.63;34.00;;;4.50;99.90;;;;;;4999931;28;20584;-52
2020/12/30 12:46:17;;;;;;;52.50;33.87;;;4.60;99.90;;;;;;4999947;28;20484;-54
2020/12/30 12:48:45;;;;;;;47.43;33.00;;;4.60;99.90;;;;;;4997209;28;20484;-50
2020/12/30 12:51:13;;;;;;;47.40;32.27;;;4.60;99.90;;;;;;4999558;28;20487;-51